createdAt,value
2022-10-02T00:00:43.617Z,10.29
2022-10-02T00:04:06.111Z,10.28
2022-10-02T00:07:11.149Z,10.27
2022-10-02T00:10:18.858Z,10.27
2022-10-02T00:13:41.884Z,10.28
2022-10-02T00:16:56.214Z,10.29
2022-10-02T00:19:58.011Z,10.29
2022-10-02T00:23:11.786Z,10.29
2022-10-02T00:26:20.746Z,10.30
2022-10-02T00:29:40.253Z,10.29
2022-10-02T00:33:06.158Z,10.26
2022-10-02T00:36:16.772Z,10.24
2022-10-02T00:39:47.644Z,10.20
2022-10-02T00:43:12.517Z,10.20
2022-10-02T00:46:33.388Z,10.20
2022-10-02T00:49:57.730Z,10.22
2022-10-02T00:53:26.006Z,10.25
2022-10-02T00:56:46.642Z,10.26
2022-10-02T01:00:08.406Z,10.27
2022-10-02T01:03:41.133Z,10.29
2022-10-02T01:06:42.982Z,10.30
2022-10-02T01:09:45.064Z,10.31
2022-10-02T01:12:46.879Z,10.30
2022-10-02T01:15:54.732Z,10.31
2022-10-02T01:18:56.856Z,10.31
2022-10-02T01:22:05.170Z,10.31
2022-10-02T01:25:07.946Z,10.32
2022-10-02T01:28:11.724Z,10.32
2022-10-02T01:31:16.287Z,10.34
2022-10-02T01:34:18.431Z,10.36
2022-10-02T01:37:25.953Z,10.38
2022-10-02T01:40:33.471Z,10.43
2022-10-02T01:43:37.272Z,10.48
2022-10-02T01:46:58.440Z,10.49
2022-10-02T01:50:24.552Z,10.47
2022-10-02T01:53:45.334Z,10.44
2022-10-02T01:57:21.647Z,10.44
2022-10-02T02:00:26.036Z,10.47
2022-10-02T02:03:37.283Z,10.47
2022-10-02T02:07:00.473Z,10.49
2022-10-02T02:10:10.233Z,10.48
2022-10-02T02:13:19.698Z,10.48
2022-10-02T02:16:44.611Z,10.48
2022-10-02T02:19:51.319Z,10.48
2022-10-02T02:22:55.238Z,10.48
2022-10-02T02:26:04.375Z,10.48
2022-10-02T02:29:07.812Z,10.49
2022-10-02T02:32:11.205Z,10.51
2022-10-02T02:35:33.416Z,10.51
2022-10-02T02:38:41.969Z,10.50
2022-10-02T02:42:01.074Z,10.50
2022-10-02T02:45:07.226Z,10.49
2022-10-02T02:48:19.895Z,10.48
2022-10-02T02:51:26.394Z,10.49
2022-10-02T02:54:35.402Z,10.50
2022-10-02T02:58:11.345Z,10.51
2022-10-02T03:01:13.258Z,10.51
2022-10-02T03:04:15.580Z,10.51
2022-10-02T03:07:17.809Z,10.51
2022-10-02T03:10:40.375Z,10.51
2022-10-02T03:14:01.635Z,10.51
2022-10-02T03:17:18.643Z,10.51
2022-10-02T03:20:37.015Z,10.51
2022-10-02T03:23:54.010Z,10.50
2022-10-02T03:27:03.082Z,10.47
2022-10-02T03:30:13.260Z,10.44
2022-10-02T03:33:16.622Z,10.41
2022-10-02T03:36:20.832Z,10.38
2022-10-02T03:39:25.768Z,10.36
2022-10-02T03:42:31.843Z,10.36
2022-10-02T03:45:50.550Z,10.33
2022-10-02T03:48:56.681Z,10.31
2022-10-02T03:51:58.567Z,10.34
2022-10-02T03:55:03.998Z,10.36
2022-10-02T03:58:17.713Z,10.38
2022-10-02T04:01:30.211Z,10.40
2022-10-02T04:04:45.562Z,10.45
2022-10-02T04:07:52.828Z,10.49
2022-10-02T04:11:18.962Z,10.51
2022-10-02T04:14:21.780Z,10.42
2022-10-02T04:17:47.622Z,10.18
2022-10-02T04:20:52.257Z,10.12
2022-10-02T04:24:18.266Z,10.17
2022-10-02T04:27:39.224Z,10.17
2022-10-02T04:30:41.318Z,10.22
2022-10-02T04:33:43.299Z,10.27
2022-10-02T04:36:59.900Z,10.31
2022-10-02T04:40:26.225Z,10.34
2022-10-02T04:44:03.442Z,10.36
2022-10-02T04:47:18.898Z,10.38
2022-10-02T04:50:23.776Z,10.41
2022-10-02T04:53:35.639Z,10.53
2022-10-02T04:57:01.790Z,10.63
2022-10-02T05:00:14.325Z,10.67
2022-10-02T05:03:30.160Z,10.68
2022-10-02T05:06:41.303Z,10.70
2022-10-02T05:10:05.166Z,10.72
2022-10-02T05:13:28.701Z,10.77
2022-10-02T05:16:37.042Z,10.79
2022-10-02T05:19:59.354Z,10.80
2022-10-02T05:23:38.684Z,10.83
2022-10-02T05:27:11.191Z,10.84
2022-10-02T05:30:20.271Z,10.86
2022-10-02T05:33:54.220Z,10.89
2022-10-02T05:37:23.834Z,10.94
2022-10-02T05:40:32.193Z,10.99
2022-10-02T05:43:51.458Z,11.05
2022-10-02T05:47:01.730Z,11.10
2022-10-02T05:50:08.045Z,11.17
2022-10-02T05:53:34.275Z,11.23
2022-10-02T05:56:40.351Z,11.28
2022-10-02T06:00:01.990Z,11.31
2022-10-02T06:03:12.895Z,11.35
2022-10-02T06:06:22.975Z,11.38
2022-10-02T06:09:28.807Z,11.42
2022-10-02T06:12:38.610Z,11.46
2022-10-02T06:15:49.063Z,11.50
2022-10-02T06:18:56.322Z,11.53
2022-10-02T06:22:05.855Z,11.58
2022-10-02T06:26:00.410Z,11.63
2022-10-02T06:29:06.039Z,11.67
2022-10-02T06:32:18.398Z,11.64
2022-10-02T06:35:44.022Z,11.55
2022-10-02T06:39:23.698Z,11.50
2022-10-02T06:42:43.730Z,11.48
2022-10-02T06:46:08.442Z,11.55
2022-10-02T06:49:13.619Z,11.91
2022-10-02T06:52:21.395Z,11.99
2022-10-02T06:56:05.176Z,12.02
2022-10-02T06:59:09.795Z,12.12
2022-10-02T07:02:49.561Z,12.20
2022-10-02T07:06:20.612Z,12.30
2022-10-02T07:09:44.450Z,12.38
2022-10-02T07:13:18.110Z,12.46
2022-10-02T07:16:35.589Z,12.58
2022-10-02T07:19:43.874Z,12.66
2022-10-02T07:23:17.990Z,12.87
2022-10-02T07:26:55.365Z,13.11
2022-10-02T07:30:02.535Z,13.41
2022-10-02T07:33:18.515Z,13.83
2022-10-02T07:36:58.122Z,14.15
2022-10-02T07:40:24.051Z,14.25
2022-10-02T07:43:50.962Z,14.03
2022-10-02T07:46:55.461Z,13.59
2022-10-02T07:50:12.444Z,13.30
2022-10-02T07:53:24.427Z,13.11
2022-10-02T07:56:27.343Z,12.98
2022-10-02T07:59:31.407Z,12.93
2022-10-02T08:02:57.316Z,12.87
2022-10-02T08:06:00.730Z,12.79
2022-10-02T08:09:07.433Z,12.81
2022-10-02T08:12:28.279Z,12.99
2022-10-02T08:15:35.255Z,13.00
2022-10-02T08:18:59.966Z,12.97
2022-10-02T08:22:26.587Z,12.97
2022-10-02T08:25:50.858Z,13.06
2022-10-02T08:29:18.243Z,13.32
2022-10-02T08:32:22.710Z,13.58
2022-10-02T08:35:33.095Z,13.64
2022-10-02T08:38:40.943Z,13.61
2022-10-02T08:41:42.662Z,13.49
2022-10-02T08:45:18.587Z,13.74
2022-10-02T08:48:32.140Z,14.11
2022-10-02T08:51:49.476Z,14.32
2022-10-02T08:55:10.833Z,14.33
2022-10-02T08:58:29.502Z,14.22
2022-10-02T09:02:02.099Z,14.22
2022-10-02T09:05:39.639Z,14.23
2022-10-02T09:08:56.313Z,14.20
2022-10-02T09:12:14.464Z,14.03
2022-10-02T09:15:19.509Z,13.83
2022-10-02T09:18:50.026Z,14.09
2022-10-02T09:21:52.760Z,14.44
2022-10-02T09:25:28.686Z,14.66
2022-10-02T09:28:48.827Z,15.42
2022-10-02T09:32:27.884Z,15.74
2022-10-02T09:35:32.537Z,15.53
2022-10-02T09:38:52.719Z,15.09
2022-10-02T09:42:23.310Z,14.63
2022-10-02T09:45:40.342Z,14.25
2022-10-02T09:49:20.182Z,14.05
2022-10-02T09:52:43.864Z,13.93
2022-10-02T09:56:17.653Z,13.94
2022-10-02T10:00:04.686Z,14.01
2022-10-02T10:03:36.746Z,14.00
2022-10-02T10:07:19.052Z,13.96
2022-10-02T10:10:49.553Z,13.89
2022-10-02T10:14:30.629Z,13.93
2022-10-02T10:17:44.775Z,13.97
2022-10-02T10:21:31.359Z,14.09
2022-10-02T10:25:10.968Z,14.36
2022-10-02T10:28:24.850Z,14.44
2022-10-02T10:31:58.084Z,14.91
2022-10-02T10:35:18.095Z,15.32
2022-10-02T10:38:33.217Z,15.48
2022-10-02T10:41:48.862Z,15.92
2022-10-02T10:45:02.894Z,15.97
2022-10-02T10:48:04.641Z,15.89
2022-10-02T10:51:16.951Z,15.87
2022-10-02T10:54:40.795Z,15.68
2022-10-02T10:57:52.164Z,15.53
2022-10-02T11:01:19.000Z,15.52
2022-10-02T11:04:26.805Z,15.47
2022-10-02T11:08:06.702Z,15.31
2022-10-02T11:11:33.487Z,15.09
2022-10-02T11:15:02.869Z,14.91
2022-10-02T11:18:31.531Z,14.83
2022-10-02T11:21:52.804Z,14.78
2022-10-02T11:25:28.845Z,14.76
2022-10-02T11:29:08.526Z,14.79
2022-10-02T11:33:10.909Z,14.94
2022-10-02T11:36:21.812Z,14.79
2022-10-02T11:39:45.960Z,14.64
2022-10-02T11:43:19.257Z,14.66
2022-10-02T11:50:43.089Z,15.02
2022-10-02T11:54:03.927Z,14.76
2022-10-02T12:01:05.950Z,14.65
2022-10-02T12:04:32.710Z,15.18
2022-10-02T12:07:50.013Z,15.38
2022-10-02T12:11:13.501Z,15.39
2022-10-02T12:14:34.787Z,15.28
2022-10-02T12:17:53.581Z,15.26
2022-10-02T12:21:23.725Z,15.26
2022-10-02T12:25:01.355Z,15.25
2022-10-02T12:28:23.870Z,15.57
2022-10-02T12:31:32.397Z,15.91
2022-10-02T12:34:43.107Z,16.16
2022-10-02T12:38:28.558Z,16.19
2022-10-02T12:42:12.478Z,15.97
2022-10-02T12:45:35.590Z,15.65
2022-10-02T12:48:50.395Z,15.25
2022-10-02T12:52:21.438Z,15.08
2022-10-02T12:55:44.801Z,15.08
2022-10-02T12:59:05.196Z,15.16
2022-10-02T13:02:19.539Z,15.36
2022-10-02T13:05:29.017Z,15.55
2022-10-02T13:08:54.090Z,15.51
2022-10-02T13:12:07.790Z,15.46
2022-10-02T13:15:25.199Z,15.41
2022-10-02T13:18:43.971Z,15.45
2022-10-02T13:22:16.625Z,15.43
2022-10-02T13:25:27.187Z,15.39
2022-10-02T13:28:43.239Z,15.41
2022-10-02T13:32:06.506Z,15.51
2022-10-02T13:35:36.211Z,15.69
2022-10-02T13:38:42.825Z,15.99
2022-10-02T13:42:14.715Z,16.07
2022-10-02T13:45:29.702Z,15.89
2022-10-02T13:48:47.727Z,15.57
2022-10-02T13:52:03.145Z,15.37
2022-10-02T13:55:54.154Z,15.28
2022-10-02T13:59:34.971Z,15.02
2022-10-02T14:03:17.417Z,15.09
2022-10-02T14:06:30.916Z,15.12
2022-10-02T14:09:43.255Z,15.14
2022-10-02T14:13:10.155Z,15.11
2022-10-02T14:16:30.695Z,15.00
2022-10-02T14:20:18.899Z,14.95
2022-10-02T14:23:36.211Z,14.92
2022-10-02T14:27:14.593Z,14.77
2022-10-02T14:30:19.651Z,14.19
2022-10-02T14:33:30.542Z,13.64
2022-10-02T14:36:40.538Z,13.32
2022-10-02T14:39:43.163Z,13.23
2022-10-02T14:42:47.627Z,13.32
2022-10-02T14:45:55.329Z,13.38
2022-10-02T14:49:19.567Z,13.35
2022-10-02T14:56:57.674Z,13.01
2022-10-02T15:00:06.315Z,12.80
2022-10-02T15:03:18.350Z,12.69
2022-10-02T15:06:28.443Z,12.67
2022-10-02T15:09:44.938Z,12.87
2022-10-02T15:13:26.910Z,13.09
2022-10-02T15:17:16.142Z,13.10
2022-10-02T15:20:43.386Z,13.18
2022-10-02T15:23:47.301Z,13.01
2022-10-02T15:26:55.015Z,12.79
2022-10-02T15:30:16.754Z,12.59
2022-10-02T15:33:42.952Z,12.32
2022-10-02T15:37:00.710Z,12.12
2022-10-02T15:40:05.573Z,11.92
2022-10-02T15:43:30.991Z,11.79
2022-10-02T15:46:54.209Z,11.77
2022-10-02T15:50:19.407Z,11.75
2022-10-02T15:53:32.891Z,11.70
2022-10-02T15:56:41.016Z,11.57
2022-10-02T15:59:54.638Z,11.54
2022-10-02T16:03:02.272Z,11.55
2022-10-02T16:06:31.731Z,11.51
2022-10-02T16:10:01.375Z,11.43
2022-10-02T16:13:34.652Z,11.33
2022-10-02T16:16:36.733Z,11.18
2022-10-02T16:20:02.800Z,11.11
2022-10-02T16:23:26.621Z,11.02
2022-10-02T16:27:15.735Z,11.00
2022-10-02T16:30:20.470Z,10.90
2022-10-02T16:33:56.312Z,10.85
2022-10-02T16:37:05.711Z,10.79
2022-10-02T16:40:27.454Z,10.77
2022-10-02T16:43:52.926Z,10.78
2022-10-02T16:47:26.856Z,10.78
2022-10-02T16:50:47.793Z,10.80
2022-10-02T16:53:51.162Z,10.73
2022-10-02T16:56:54.640Z,10.67
2022-10-02T17:00:17.891Z,10.69
2022-10-02T17:03:38.952Z,10.68
2022-10-02T17:06:47.159Z,10.65
2022-10-02T17:09:52.500Z,10.62
2022-10-02T17:13:12.257Z,10.57
2022-10-02T17:16:21.684Z,10.60
2022-10-02T17:19:28.778Z,10.60
2022-10-02T17:22:44.622Z,10.59
2022-10-02T17:26:04.268Z,10.57
2022-10-02T17:29:15.136Z,10.51
2022-10-02T17:32:37.016Z,10.45
2022-10-02T17:35:41.404Z,10.37
2022-10-02T17:38:47.396Z,10.22
2022-10-02T17:42:20.802Z,10.12
2022-10-02T17:45:47.518Z,10.05
2022-10-02T17:49:01.224Z,9.98
2022-10-02T17:52:40.644Z,9.91
2022-10-02T17:56:21.049Z,9.79
2022-10-02T17:59:53.401Z,9.76
2022-10-02T18:03:04.244Z,9.70
2022-10-02T18:06:34.061Z,9.69
2022-10-02T18:09:44.509Z,9.60
2022-10-02T18:12:57.064Z,9.54
2022-10-02T18:16:34.024Z,9.51
2022-10-02T18:20:00.264Z,9.42
2022-10-02T18:23:17.265Z,9.34
2022-10-02T18:26:28.075Z,9.32
2022-10-02T18:29:48.362Z,9.40
2022-10-02T18:33:08.757Z,9.45
2022-10-02T18:36:26.367Z,9.49
2022-10-02T18:39:33.085Z,9.52
2022-10-02T18:42:44.176Z,9.50
2022-10-02T18:46:17.371Z,9.49
2022-10-02T18:49:48.233Z,9.53
2022-10-02T18:53:20.157Z,9.54
2022-10-02T18:56:47.085Z,9.58
2022-10-02T19:00:17.267Z,9.63
2022-10-02T19:03:27.982Z,9.66
2022-10-02T19:06:33.951Z,9.75
2022-10-02T19:09:35.891Z,9.80
2022-10-02T19:12:43.410Z,9.84
2022-10-02T19:15:46.984Z,9.92
2022-10-02T19:18:48.979Z,9.95
2022-10-02T19:21:56.041Z,9.99
2022-10-02T19:25:08.323Z,10.04
2022-10-02T19:28:16.089Z,10.10
2022-10-02T19:31:27.179Z,9.97
2022-10-02T19:34:30.728Z,9.77
2022-10-02T19:37:33.070Z,9.69
2022-10-02T19:40:35.852Z,9.57
2022-10-02T19:44:07.101Z,9.46
2022-10-02T19:47:29.621Z,9.37
2022-10-02T19:50:47.447Z,9.34
2022-10-02T19:53:57.207Z,9.29
2022-10-02T19:57:04.372Z,9.24
2022-10-02T20:00:14.550Z,9.23
2022-10-02T20:03:24.847Z,9.21
2022-10-02T20:06:31.341Z,9.17
2022-10-02T20:10:04.306Z,9.17
2022-10-02T20:13:37.707Z,9.09
2022-10-02T20:16:58.520Z,9.03
2022-10-02T20:20:04.213Z,9.03
2022-10-02T20:23:13.363Z,9.00
2022-10-02T20:26:17.414Z,9.03
2022-10-02T20:29:23.454Z,9.03
2022-10-02T20:32:33.796Z,9.17
2022-10-02T20:36:13.020Z,9.29
2022-10-02T20:39:18.679Z,9.38
2022-10-02T20:42:28.401Z,9.43
2022-10-02T20:45:40.097Z,9.45
2022-10-02T20:49:08.337Z,9.43
2022-10-02T20:52:49.459Z,9.41
2022-10-02T20:56:09.086Z,9.37
2022-10-02T20:59:31.977Z,9.34
2022-10-02T21:03:08.790Z,9.31
2022-10-02T21:06:22.430Z,9.27
2022-10-02T21:09:46.120Z,9.25
2022-10-02T21:13:24.340Z,9.25
2022-10-02T21:17:07.812Z,9.23
2022-10-02T21:20:55.691Z,9.19
2022-10-02T21:24:21.853Z,9.18
2022-10-02T21:27:35.699Z,9.16
2022-10-02T21:30:49.787Z,9.15
2022-10-02T21:33:54.371Z,9.14
2022-10-02T21:37:17.251Z,9.11
2022-10-02T21:40:39.088Z,9.10
2022-10-02T21:44:03.451Z,9.10
2022-10-02T21:47:40.392Z,9.06
2022-10-02T21:50:54.047Z,9.05
2022-10-02T21:54:19.013Z,9.03
2022-10-02T21:57:40.295Z,9.04
2022-10-02T22:00:59.584Z,9.11
2022-10-02T22:04:59.130Z,9.14
2022-10-02T22:08:22.548Z,9.12
2022-10-02T22:12:03.460Z,9.12
2022-10-02T22:15:34.744Z,9.17
2022-10-02T22:18:44.770Z,9.21
2022-10-02T22:22:22.641Z,9.16
2022-10-02T22:25:39.774Z,9.10
2022-10-02T22:29:17.031Z,9.05
2022-10-02T22:32:52.875Z,9.02
2022-10-02T22:36:30.247Z,8.97
2022-10-02T22:39:36.254Z,8.95
2022-10-02T22:42:45.704Z,8.96
2022-10-02T22:46:01.995Z,9.00
2022-10-02T22:49:16.620Z,9.06
2022-10-02T22:52:32.269Z,9.11
2022-10-02T22:55:39.111Z,9.17
2022-10-02T22:58:47.519Z,9.20
2022-10-02T23:01:57.433Z,9.22
2022-10-02T23:05:19.137Z,9.26
2022-10-02T23:08:39.263Z,9.27
2022-10-02T23:11:46.882Z,9.28
2022-10-02T23:15:19.842Z,9.29
2022-10-02T23:18:39.757Z,9.27
2022-10-02T23:22:09.149Z,9.23
2022-10-02T23:25:20.808Z,9.19
2022-10-02T23:28:24.652Z,9.19
2022-10-02T23:31:32.818Z,9.19
2022-10-02T23:34:49.948Z,9.18
2022-10-02T23:38:24.075Z,9.16
2022-10-02T23:41:47.096Z,9.14
2022-10-02T23:44:56.570Z,9.13
2022-10-02T23:48:06.118Z,9.15
2022-10-02T23:51:32.177Z,9.17
2022-10-02T23:55:07.840Z,9.21
2022-10-02T23:58:38.674Z,9.23
